Time;durP1;ratioP1;P1;durP2;ratioP2;P2;SDS_P1;SDS_P2;PMS_P1;PMS_P2;Temp;Humidity;BMP_temperature;BMP_pressure;BME280_temperature;BME280_humidity;BME280_pressure;Samples;Min_cycle;Max_cycle;Signal;HPM_P1;HPM_P2
2022/03/20 00:00:14;;;;;;;5.93;1.40;;;16.70;55.00;;;;;;5081175;28;20153;-54
2022/03/20 00:02:41;;;;;;;5.28;1.48;;;16.70;55.10;;;;;;5073194;28;20033;-54
2022/03/20 00:05:08;;;;;;;5.88;1.55;;;16.70;55.20;;;;;;5075091;28;20028;-50
2022/03/20 00:07:34;;;;;;;5.68;1.73;;;16.70;55.20;;;;;;5079200;28;20020;-50
2022/03/20 00:10:01;;;;;;;5.60;1.40;;;16.70;55.30;;;;;;5078045;28;20526;-54
2022/03/20 00:12:27;;;;;;;5.65;1.77;;;16.60;55.20;;;;;;5081595;28;20525;-54
2022/03/20 00:14:52;;;;;;;3.33;1.23;;;16.60;55.30;;;;;;5078862;28;20055;-54
2022/03/20 00:17:20;;;;;;;6.65;1.88;;;16.60;55.30;;;;;;5082967;28;20025;-54
2022/03/20 00:19:46;;;;;;;4.05;1.42;;;16.60;55.30;;;;;;5079780;28;20023;-54
2022/03/20 00:22:13;;;;;;;5.65;1.88;;;16.60;55.40;;;;;;5082639;28;20047;-52
2022/03/20 00:24:42;;;;;;;6.88;1.50;;;16.50;55.50;;;;;;5079613;28;20027;-54
2022/03/20 00:27:10;;;;;;;6.57;1.83;;;16.50;55.50;;;;;;5081719;28;20045;-52
2022/03/20 00:29:36;;;;;;;3.58;1.58;;;16.50;55.70;;;;;;5082087;28;20099;-52
2022/03/20 00:32:03;;;;;;;7.68;2.08;;;16.50;55.70;;;;;;5082817;28;20103;-54
2022/03/20 00:34:28;;;;;;;4.63;1.30;;;16.50;55.80;;;;;;5081906;28;20020;-54
2022/03/20 00:36:54;;;;;;;4.70;1.60;;;16.40;55.80;;;;;;5081845;28;20012;-51
2022/03/20 00:39:20;;;;;;;4.40;1.58;;;16.40;55.80;;;;;;5083276;28;20119;-51
2022/03/20 00:41:46;;;;;;;3.05;1.42;;;16.40;55.90;;;;;;5077240;28;20091;-53
2022/03/20 00:44:12;;;;;;;3.75;1.67;;;16.40;56.00;;;;;;5091290;28;20039;-54
2022/03/20 00:46:38;;;;;;;5.63;1.88;;;16.40;56.00;;;;;;5090636;28;20028;-53
2022/03/20 00:49:03;;;;;;;4.15;1.67;;;16.30;56.00;;;;;;5090567;28;20028;-54
2022/03/20 00:51:29;;;;;;;5.13;2.00;;;16.30;56.00;;;;;;5091092;28;20103;-53
2022/03/20 00:53:55;;;;;;;5.38;1.77;;;16.30;56.10;;;;;;5090707;28;20019;-54
2022/03/20 00:56:21;;;;;;;4.00;1.60;;;16.30;56.10;;;;;;5091197;28;20020;-51
2022/03/20 00:58:46;;;;;;;4.65;1.95;;;16.30;56.10;;;;;;5090226;28;20018;-51
2022/03/20 01:01:14;;;;;;;4.40;1.58;;;16.30;56.20;;;;;;5091620;28;20055;-50
2022/03/20 01:03:40;;;;;;;5.25;1.95;;;16.20;56.20;;;;;;5090538;28;20081;-49
2022/03/20 01:06:07;;;;;;;5.75;1.90;;;16.20;56.20;;;;;;5090531;28;20551;-52
2022/03/20 01:08:34;;;;;;;6.88;1.75;;;16.20;56.20;;;;;;5090614;28;20012;-51
2022/03/20 01:11:04;;;;;;;6.55;2.13;;;16.20;56.30;;;;;;5090757;28;20024;-53
2022/03/20 01:13:29;;;;;;;5.15;1.55;;;16.20;56.30;;;;;;5090574;28;20539;-51
2022/03/20 01:15:57;;;;;;;4.47;1.90;;;16.20;56.30;;;;;;5090540;28;20028;-54
2022/03/20 01:18:24;;;;;;;3.70;1.73;;;16.20;56.40;;;;;;5090658;28;20020;-53
2022/03/20 01:20:51;;;;;;;4.03;1.80;;;16.10;56.50;;;;;;5090681;28;20031;-54
2022/03/20 01:23:17;;;;;;;4.65;2.00;;;16.10;56.50;;;;;;5090025;28;20398;-51
2022/03/20 01:25:42;;;;;;;5.35;2.00;;;16.10;56.50;;;;;;5090323;28;20048;-52
2022/03/20 01:28:08;;;;;;;4.85;2.25;;;16.10;56.60;;;;;;5090139;28;20020;-52
2022/03/20 01:30:34;;;;;;;5.35;2.13;;;16.00;57.20;;;;;;5090079;28;20042;-53
2022/03/20 01:33:00;;;;;;;6.10;2.20;;;16.00;56.60;;;;;;5090125;28;20028;-54
2022/03/20 01:35:25;;;;;;;4.88;1.90;;;16.00;56.70;;;;;;5090046;28;20024;-51
2022/03/20 01:37:51;;;;;;;4.80;2.20;;;16.00;56.70;;;;;;5090294;28;20024;-52
2022/03/20 01:40:16;;;;;;;5.57;2.63;;;16.00;56.70;;;;;;5089613;28;20020;-53
2022/03/20 01:42:43;;;;;;;5.95;2.10;;;15.90;56.70;;;;;;5090302;28;20020;-54
2022/03/20 01:45:14;;;;;;;6.55;2.33;;;15.90;56.80;;;;;;5089864;28;20549;-52
2022/03/20 01:47:39;;;;;;;6.47;2.35;;;15.90;56.90;;;;;;5089844;28;20113;-54
2022/03/20 01:50:05;;;;;;;5.40;2.58;;;15.90;57.00;;;;;;5089784;28;20054;-53
2022/03/20 01:52:32;;;;;;;7.57;2.55;;;15.90;57.00;;;;;;5089914;28;20031;-53
2022/03/20 01:54:58;;;;;;;4.97;2.15;;;15.90;57.00;;;;;;5089471;28;20451;-56
2022/03/20 01:57:23;;;;;;;6.43;2.85;;;15.80;57.00;;;;;;5089308;28;20028;-54
2022/03/20 01:59:51;;;;;;;6.22;2.33;;;15.80;57.00;;;;;;5089201;28;20024;-50
2022/03/20 02:02:17;;;;;;;5.85;2.55;;;15.80;57.00;;;;;;5089718;28;20043;-49
2022/03/20 02:04:43;;;;;;;4.82;2.20;;;15.80;57.10;;;;;;5089004;28;20024;-49
2022/03/20 02:07:09;;;;;;;4.65;2.40;;;15.80;57.10;;;;;;5089109;28;20123;-53
2022/03/20 02:09:37;;;;;;;6.20;2.63;;;15.80;57.20;;;;;;5089339;28;20196;-50
2022/03/20 02:12:03;;;;;;;4.05;2.47;;;15.70;57.20;;;;;;5089559;28;20102;-54
2022/03/20 02:14:32;;;;;;;6.10;2.63;;;15.70;57.20;;;;;;5089342;28;20032;-53
2022/03/20 02:16:57;;;;;;;4.10;2.28;;;15.70;57.30;;;;;;5089351;28;20477;-49
2022/03/20 02:19:24;;;;;;;5.72;2.75;;;15.70;57.20;;;;;;5089357;28;20039;-52
2022/03/20 02:21:50;;;;;;;6.60;2.70;;;15.60;57.30;;;;;;5089295;28;20099;-55
2022/03/20 02:24:44;;;;;;;4.53;2.45;;;15.60;57.30;;;;;;5088967;28;20119;-53
2022/03/20 02:27:20;;;;;;;4.47;2.47;;;15.60;57.40;;;;;;5085952;28;20049;-52
2022/03/20 02:29:56;;;;;;;5.78;2.45;;;15.60;57.40;;;;;;5088811;28;20051;-51
2022/03/20 02:32:27;;;;;;;6.70;2.60;;;15.60;57.50;;;;;;5089308;28;20099;-52
2022/03/20 02:34:54;;;;;;;9.10;3.97;;;15.60;57.50;;;;;;5088190;28;20016;-52
2022/03/20 02:37:22;;;;;;;6.07;2.67;;;15.60;57.60;;;;;;5088845;28;20028;-53
2022/03/20 02:39:49;;;;;;;8.10;3.33;;;15.50;57.50;;;;;;5069625;28;20108;-52
2022/03/20 02:42:16;;;;;;;5.75;2.53;;;15.60;57.60;;;;;;5088208;28;20024;-54
2022/03/20 02:45:07;;;;;;;7.03;3.00;;;15.50;57.50;;;;;;5088979;28;20024;-52
2022/03/20 02:47:35;;;;;;;6.65;2.63;;;15.50;57.60;;;;;;5088653;28;20036;-52
2022/03/20 02:50:07;;;;;;;5.90;3.00;;;15.50;57.60;;;;;;5089042;28;20020;-54
2022/03/20 02:52:53;;;;;;;4.80;2.38;;;15.50;57.70;;;;;;5088198;28;20166;-53
2022/03/20 02:55:25;;;;;;;5.32;2.70;;;15.50;57.70;;;;;;5088960;28;20028;-53
2022/03/20 02:57:53;;;;;;;5.05;2.85;;;15.50;57.80;;;;;;5088352;28;20466;-54
2022/03/20 03:00:22;;;;;;;5.55;2.63;;;15.40;57.80;;;;;;5088602;28;20031;-50
2022/03/20 03:02:50;;;;;;;7.80;2.88;;;15.40;57.80;;;;;;5088342;28;20474;-55
2022/03/20 03:05:18;;;;;;;6.53;2.88;;;15.40;57.80;;;;;;5088445;28;20822;-54
2022/03/20 03:13:16;;;;;;;7.13;3.08;;;15.40;57.90;;;;;;5081303;28;20082;-53
2022/03/20 03:15:42;;;;;;;9.40;3.30;;;15.30;57.90;;;;;;5073128;28;20712;-54
2022/03/20 03:18:08;;;;;;;5.72;2.80;;;15.30;57.90;;;;;;5083988;28;20052;-50
2022/03/20 03:20:34;;;;;;;7.07;3.30;;;15.30;57.90;;;;;;5088265;28;20032;-54
2022/03/20 03:23:00;;;;;;;9.32;3.40;;;15.30;58.60;;;;;;5088160;28;20046;-51
2022/03/20 03:25:26;;;;;;;12.52;3.67;;;15.30;58.00;;;;;;5088161;28;20620;-51
2022/03/20 03:27:52;;;;;;;8.90;3.97;;;15.30;58.00;;;;;;5088144;28;20024;-50
2022/03/20 03:30:18;;;;;;;10.65;3.50;;;15.20;58.00;;;;;;5088493;28;20111;-51
2022/03/20 03:32:44;;;;;;;10.18;3.22;;;15.30;58.10;;;;;;5088319;28;20099;-51
2022/03/20 03:37:57;;;;;;;10.45;4.05;;;15.30;58.80;;;;;;5087934;28;20086;-53
2022/03/20 03:40:23;;;;;;;6.93;3.00;;;15.20;58.10;;;;;;5088028;28;20012;-51
2022/03/20 03:42:48;;;;;;;8.50;3.38;;;15.20;58.20;;;;;;5088407;28;20048;-54
2022/03/20 03:45:14;;;;;;;12.38;3.45;;;15.20;58.20;;;;;;5088199;28;20067;-52
2022/03/20 03:47:40;;;;;;;7.10;3.35;;;15.20;58.90;;;;;;5089242;28;20028;-54
2022/03/20 03:50:07;;;;;;;9.38;3.30;;;15.20;58.30;;;;;;5092097;28;20024;-51
2022/03/20 03:52:33;;;;;;;10.50;3.70;;;15.20;58.30;;;;;;5092268;28;20097;-53
2022/03/20 03:54:58;;;;;;;11.82;3.97;;;15.20;58.30;;;;;;5091382;28;20478;-54
2022/03/20 03:57:24;;;;;;;8.60;3.42;;;15.20;58.40;;;;;;5089524;28;20036;-53
2022/03/20 03:59:50;;;;;;;10.23;3.40;;;15.20;58.40;;;;;;5091591;28;20478;-48
2022/03/20 04:02:16;;;;;;;9.00;3.50;;;15.10;58.30;;;;;;5091990;28;20024;-50
2022/03/20 04:04:42;;;;;;;9.73;4.40;;;15.10;58.40;;;;;;5092134;28;20028;-50
2022/03/20 04:07:08;;;;;;;8.88;3.65;;;15.10;58.40;;;;;;5091213;28;20429;-50
2022/03/20 04:09:35;;;;;;;13.68;4.05;;;15.10;58.40;;;;;;5091504;28;20024;-52
2022/03/20 04:12:03;;;;;;;9.60;3.47;;;15.10;58.40;;;;;;5091486;28;20029;-51
2022/03/20 04:14:29;;;;;;;10.38;3.95;;;15.10;58.40;;;;;;5091239;28;20028;-54
2022/03/20 04:16:55;;;;;;;9.63;4.82;;;15.10;58.40;;;;;;5091633;28;20129;-54
2022/03/20 04:19:21;;;;;;;13.55;4.53;;;15.10;58.30;;;;;;5092034;28;20095;-51
2022/03/20 04:21:48;;;;;;;13.25;4.28;;;15.10;58.40;;;;;;5092330;28;20531;-59
2022/03/20 04:24:14;;;;;;;10.32;4.45;;;15.10;58.40;;;;;;5092556;28;20394;-54
2022/03/20 04:26:40;;;;;;;11.93;4.15;;;15.10;58.40;;;;;;5090362;28;20054;-52
2022/03/20 04:29:05;;;;;;;11.73;4.20;;;15.10;58.40;;;;;;5092020;28;20093;-52
2022/03/20 04:31:31;;;;;;;12.50;3.88;;;15.10;58.40;;;;;;5092002;28;20482;-54
2022/03/20 04:33:57;;;;;;;11.80;4.80;;;15.10;58.50;;;;;;5091803;28;20059;-54
2022/03/20 04:36:24;;;;;;;11.85;4.57;;;15.10;58.50;;;;;;5091737;28;20028;-54
2022/03/20 04:38:52;;;;;;;11.52;4.53;;;15.10;58.50;;;;;;5092448;28;20051;-51
2022/03/20 04:41:17;;;;;;;12.68;4.18;;;15.10;58.50;;;;;;5091852;28;20032;-53
2022/03/20 04:43:47;;;;;;;14.65;4.38;;;15.00;58.30;;;;;;5091230;28;20016;-54
2022/03/20 04:46:13;;;;;;;12.07;4.70;;;15.00;58.40;;;;;;5090952;28;20036;-52
2022/03/20 04:59:37;;;;;;;10.38;4.45;;;15.00;58.40;;;;;;5091139;28;20074;-52
2022/03/20 05:02:04;;;;;;;11.55;4.07;;;15.00;58.40;;;;;;5091624;28;20505;-51
2022/03/20 05:04:30;;;;;;;10.60;4.70;;;15.00;58.40;;;;;;5091475;28;20513;-51
2022/03/20 05:06:58;;;;;;;9.30;4.22;;;15.00;58.40;;;;;;5091500;28;20107;-55
2022/03/20 05:14:58;;;;;;;9.85;4.20;;;15.00;58.40;;;;;;5066318;28;20097;-54
2022/03/20 05:17:24;;;;;;;12.95;5.72;;;15.00;58.30;;;;;;5086166;28;20059;-55
2022/03/20 05:19:50;;;;;;;15.52;5.25;;;15.00;58.50;;;;;;5082565;28;20058;-59
2022/03/20 05:22:16;;;;;;;8.48;4.75;;;15.00;58.30;;;;;;5092318;28;20069;-56
2022/03/20 05:24:41;;;;;;;13.02;5.55;;;15.00;58.30;;;;;;5088151;28;20024;-53
2022/03/20 05:27:07;;;;;;;11.27;5.82;;;15.00;55.90;;;;;;5084931;28;20056;-53
2022/03/20 05:29:34;;;;;;;12.52;6.22;;;14.90;51.00;;;;;;5082598;28;20032;-52
2022/03/20 05:32:04;;;;;;;15.35;8.35;;;14.60;48.80;;;;;;5086223;28;20023;-54
2022/03/20 05:34:33;;;;;;;11.20;7.70;;;14.50;51.00;;;;;;5085390;28;20111;-55
2022/03/20 05:36:59;;;;;;;13.45;9.02;;;14.40;47.10;;;;;;5085975;28;20028;-52
2022/03/20 05:39:26;;;;;;;17.45;10.60;;;14.30;48.60;;;;;;5082388;28;20024;-49
2022/03/20 05:41:51;;;;;;;14.60;10.05;;;14.10;48.60;;;;;;5085241;28;20477;-54
2022/03/20 05:44:22;;;;;;;17.50;9.77;;;14.10;46.80;;;;;;5085133;28;20050;-55
2022/03/20 05:46:49;;;;;;;14.45;9.95;;;13.70;46.40;;;;;;5089832;28;20122;-54
2022/03/20 05:49:16;;;;;;;19.55;11.40;;;13.40;46.80;;;;;;5090771;28;20036;-53
2022/03/20 05:51:42;;;;;;;15.75;11.57;;;13.00;47.50;;;;;;5090544;28;20530;-53
2022/03/20 05:54:08;;;;;;;17.50;10.88;;;12.70;47.30;;;;;;5090382;28;20027;-52
2022/03/20 05:59:19;;;;;;;20.20;11.23;;;12.90;47.40;;;;;;5085032;28;20438;-54
2022/03/20 06:01:45;;;;;;;17.90;11.65;;;13.00;46.90;;;;;;5081103;28;20051;-54
2022/03/20 06:04:11;;;;;;;17.75;11.90;;;12.90;46.80;;;;;;5085204;28;20028;-49
2022/03/20 06:06:37;;;;;;;17.42;11.82;;;13.00;46.70;;;;;;5078170;28;20047;-54
2022/03/20 06:09:04;;;;;;;17.15;11.00;;;12.90;46.70;;;;;;5088128;28;20433;-54
2022/03/20 06:11:32;;;;;;;20.27;11.80;;;12.80;46.70;;;;;;5078807;28;20031;-55
2022/03/20 06:14:00;;;;;;;17.52;11.93;;;12.80;47.80;;;;;;5085175;28;20017;-53
2022/03/20 06:16:25;;;;;;;19.42;12.13;;;13.20;47.40;;;;;;5082767;28;20421;-54
2022/03/20 06:18:51;;;;;;;19.52;11.35;;;13.60;47.10;;;;;;5082467;28;20013;-55
2022/03/20 06:21:16;;;;;;;17.13;11.55;;;13.80;48.00;;;;;;5079740;28;20456;-53
2022/03/20 06:23:42;;;;;;;19.73;11.88;;;13.90;48.20;;;;;;5085176;28;20023;-55
2022/03/20 06:26:08;;;;;;;22.42;10.70;;;14.00;48.50;;;;;;5077581;28;20053;-53
2022/03/20 06:28:34;;;;;;;20.23;11.25;;;14.20;48.80;;;;;;5084634;28;20115;-53
2022/03/20 06:31:00;;;;;;;37.85;11.57;;;14.30;49.00;;;;;;5074914;28;20027;-53
2022/03/20 06:33:26;;;;;;;22.85;13.52;;;14.30;49.10;;;;;;5072579;28;20081;-54
2022/03/20 06:35:53;;;;;;;29.70;12.93;;;13.30;46.10;;;;;;5085027;28;20024;-52
2022/03/20 06:38:20;;;;;;;18.95;13.02;;;12.50;47.00;;;;;;5078202;28;20028;-53
2022/03/20 06:40:46;;;;;;;20.88;13.27;;;12.10;47.20;;;;;;5081845;28;20139;-52
2022/03/20 06:43:13;;;;;;;23.55;14.65;;;11.90;47.40;;;;;;5071074;28;20024;-52
2022/03/20 06:45:50;;;;;;;20.95;11.07;;;11.70;47.50;;;;;;5078139;28;20024;-53
2022/03/20 06:48:16;;;;;;;20.95;12.63;;;12.10;49.50;;;;;;5075957;28;20028;-53
2022/03/20 06:50:42;;;;;;;19.08;12.18;;;12.90;50.00;;;;;;5078735;28;20024;-51
2022/03/20 06:53:07;;;;;;;17.88;11.20;;;13.50;48.50;;;;;;5077035;28;20133;-52
2022/03/20 06:55:33;;;;;;;16.90;12.25;;;13.60;45.30;;;;;;5083553;28;20123;-55
2022/03/20 06:58:00;;;;;;;19.88;12.45;;;13.10;45.40;;;;;;5083377;28;20023;-53
2022/03/20 07:00:26;;;;;;;16.70;11.93;;;13.50;46.10;;;;;;5081483;28;20124;-50
2022/03/20 07:02:55;;;;;;;21.48;11.40;;;13.90;47.00;;;;;;5077418;28;20386;-50
2022/03/20 07:05:21;;;;;;;15.80;10.73;;;14.20;47.20;;;;;;5076532;28;20028;-53
2022/03/20 07:07:48;;;;;;;21.25;11.48;;;14.40;47.20;;;;;;5071686;28;20383;-52
2022/03/20 07:10:14;;;;;;;19.83;11.38;;;14.60;47.40;;;;;;5079580;28;20444;-52
2022/03/20 07:12:40;;;;;;;19.20;10.13;;;14.70;47.50;;;;;;5069122;28;20109;-52
2022/03/20 07:15:06;;;;;;;16.95;10.75;;;14.80;47.80;;;;;;5077621;28;20823;-54
2022/03/20 07:17:36;;;;;;;22.10;10.65;;;14.80;47.80;;;;;;5070897;28;20021;-52
2022/03/20 07:20:09;;;;;;;20.58;10.23;;;14.90;47.90;;;;;;5073167;28;20055;-56
2022/03/20 07:22:35;;;;;;;18.90;10.40;;;15.00;48.30;;;;;;5069748;28;20017;-57
2022/03/20 07:29:29;;;;;;;18.98;9.85;;;15.10;48.40;;;;;;5070513;28;20057;-55
2022/03/20 07:30:30;;;;;;;15.80;10.10;;;15.30;49.30;;;;;;5072232;28;20070;-56
2022/03/20 07:32:56;;;;;;;12.93;8.88;;;15.30;48.70;;;;;;5069444;28;20026;-56
2022/03/20 07:35:21;;;;;;;19.27;9.60;;;15.40;49.10;;;;;;5073576;28;20032;-54
2022/03/20 07:37:47;;;;;;;14.95;8.52;;;15.50;49.30;;;;;;5073731;28;20052;-55
2022/03/20 07:40:12;;;;;;;15.70;8.95;;;15.50;49.10;;;;;;5082453;28;20020;-53
2022/03/20 07:42:38;;;;;;;16.60;8.63;;;15.60;49.10;;;;;;5070647;28;20390;-52
2022/03/20 07:45:04;;;;;;;15.25;7.90;;;15.60;49.30;;;;;;5073368;28;20059;-56
2022/03/20 07:47:31;;;;;;;13.48;8.55;;;15.60;49.30;;;;;;5075674;28;20080;-55
2022/03/20 07:49:56;;;;;;;14.00;8.68;;;15.70;49.40;;;;;;5072920;28;20074;-54
2022/03/20 07:52:22;;;;;;;17.70;8.88;;;15.70;49.40;;;;;;5079574;28;20030;-55
2022/03/20 07:54:48;;;;;;;14.55;8.38;;;15.80;49.50;;;;;;5077984;28;20016;-53
2022/03/20 07:57:14;;;;;;;16.70;8.68;;;15.60;49.00;;;;;;5084147;28;20063;-53
2022/03/20 07:59:41;;;;;;;19.02;9.10;;;15.70;49.60;;;;;;5083954;28;20020;-56
2022/03/20 08:02:06;;;;;;;17.55;9.25;;;15.90;49.80;;;;;;5082251;28;20569;-53
2022/03/20 08:04:32;;;;;;;26.83;13.63;;;15.90;51.00;;;;;;5087691;28;20111;-50
2022/03/20 08:06:58;;;;;;;29.42;16.05;;;15.30;44.80;;;;;;5087167;28;20035;-56
2022/03/20 08:09:27;;;;;;;27.95;14.57;;;14.10;44.50;;;;;;5087077;28;20111;-54
2022/03/20 08:11:53;;;;;;;23.67;15.82;;;13.60;44.60;;;;;;5087365;28;20028;-54
2022/03/20 08:14:19;;;;;;;25.38;15.15;;;13.20;44.40;;;;;;5087918;28;20122;-55
2022/03/20 08:16:44;;;;;;;24.15;16.33;;;12.90;44.30;;;;;;5087225;28;20031;-58
2022/03/20 08:19:11;;;;;;;27.50;16.45;;;12.80;44.20;;;;;;5083416;28;20119;-52
2022/03/20 08:21:39;;;;;;;23.95;15.02;;;12.70;44.20;;;;;;5072616;28;20052;-54
2022/03/20 08:24:06;;;;;;;21.45;15.23;;;13.00;44.60;;;;;;5087896;28;20027;-51
2022/03/20 08:26:32;;;;;;;24.05;15.35;;;13.70;44.30;;;;;;5087105;28;20054;-54
2022/03/20 08:29:01;;;;;;;20.08;14.75;;;14.20;44.40;;;;;;5086709;28;20016;-54
2022/03/20 08:31:29;;;;;;;21.15;14.48;;;14.50;45.00;;;;;;5076076;28;20127;-52
2022/03/20 08:33:57;;;;;;;20.83;14.45;;;14.70;45.30;;;;;;5082071;28;20073;-55
2022/03/20 08:36:24;;;;;;;20.80;14.27;;;14.90;45.80;;;;;;5090417;28;20024;-55
2022/03/20 08:38:50;;;;;;;31.75;13.70;;;15.00;46.40;;;;;;5090565;28;20032;-55
2022/03/20 08:41:16;;;;;;;24.48;12.63;;;15.30;47.00;;;;;;5090924;28;20110;-53
2022/03/20 08:43:41;;;;;;;21.05;13.13;;;15.40;46.70;;;;;;5089085;28;20024;-54
2022/03/20 08:46:07;;;;;;;22.45;12.85;;;15.40;46.90;;;;;;5089801;28;20028;-52
2022/03/20 08:48:33;;;;;;;19.73;11.98;;;15.50;47.00;;;;;;5089808;28;20555;-53
2022/03/20 08:50:58;;;;;;;20.63;13.55;;;15.60;47.20;;;;;;5090324;28;20056;-56
2022/03/20 08:53:25;;;;;;;21.20;11.85;;;15.50;47.30;;;;;;5083597;28;20424;-55
2022/03/20 08:55:50;;;;;;;21.58;12.57;;;15.60;47.70;;;;;;5081985;28;20028;-54
2022/03/20 08:58:17;;;;;;;21.05;12.68;;;15.60;47.80;;;;;;5082122;28;20081;-52
2022/03/20 09:00:43;;;;;;;19.60;12.35;;;15.60;47.90;;;;;;5084370;28;20450;-53
2022/03/20 09:03:10;;;;;;;18.13;11.70;;;15.60;48.10;;;;;;5088642;28;20044;-53
2022/03/20 09:05:37;;;;;;;19.88;12.05;;;15.60;48.10;;;;;;5088032;28;20023;-55
2022/03/20 09:08:04;;;;;;;21.17;12.45;;;15.60;48.40;;;;;;5088551;28;20031;-53
2022/03/20 09:10:30;;;;;;;19.35;11.55;;;15.60;48.50;;;;;;5088600;28;20031;-53
2022/03/20 09:12:57;;;;;;;41.53;13.57;;;15.60;48.80;;;;;;5089718;28;20485;-56
2022/03/20 09:15:24;;;;;;;32.20;12.75;;;15.60;49.10;;;;;;5089119;28;20135;-55
2022/03/20 09:20:37;;;;;;;29.17;11.73;;;15.60;49.20;;;;;;5080796;28;20098;-56
2022/03/20 09:23:03;;;;;;;25.20;12.00;;;15.70;49.30;;;;;;5079600;28;20021;-54
2022/03/20 09:25:32;;;;;;;37.78;12.57;;;15.80;49.20;;;;;;5080124;28;20131;-55
2022/03/20 09:27:58;;;;;;;26.02;11.32;;;15.90;49.40;;;;;;5088811;28;20473;-53
2022/03/20 09:30:24;;;;;;;23.40;11.35;;;16.00;49.90;;;;;;5089295;28;20024;-53
2022/03/20 09:32:49;;;;;;;30.20;10.90;;;16.00;49.90;;;;;;5089998;28;20051;-54
2022/03/20 09:35:16;;;;;;;29.10;11.05;;;16.00;50.40;;;;;;5089898;28;20109;-55
2022/03/20 09:37:42;;;;;;;25.13;11.30;;;16.10;50.90;;;;;;5089694;28;20027;-53
2022/03/20 09:40:12;;;;;;;24.08;11.25;;;16.10;50.90;;;;;;5089511;28;20016;-56
2022/03/20 09:42:38;;;;;;;20.33;10.63;;;16.10;51.60;;;;;;5089383;28;20443;-55
2022/03/20 09:45:06;;;;;;;27.55;10.98;;;16.20;51.30;;;;;;5089530;28;20490;-51
2022/03/20 09:47:39;;;;;;;21.02;9.63;;;16.30;51.00;;;;;;5089627;28;20043;-56
2022/03/20 09:50:10;;;;;;;22.48;10.95;;;16.60;50.90;;;;;;5088993;28;20029;-51
2022/03/20 09:52:37;;;;;;;24.60;9.73;;;16.80;51.00;;;;;;5089413;28;20169;-50
2022/03/20 09:55:04;;;;;;;23.08;9.27;;;16.90;50.80;;;;;;5088929;28;20024;-56
2022/03/20 09:57:30;;;;;;;21.95;10.25;;;17.10;50.50;;;;;;5088985;28;20039;-56
2022/03/20 10:00:04;;;;;;;21.25;9.23;;;17.20;50.30;;;;;;5089092;28;20024;-52
2022/03/20 10:02:31;;;;;;;16.75;8.63;;;17.30;50.50;;;;;;5088950;28;20028;-52
2022/03/20 10:05:05;;;;;;;21.80;9.50;;;17.50;50.50;;;;;;5089088;28;20036;-54
2022/03/20 10:07:33;;;;;;;21.67;9.60;;;17.60;50.60;;;;;;5085619;28;20040;-53
2022/03/20 10:10:05;;;;;;;49.35;9.57;;;17.60;50.50;;;;;;5088854;28;20455;-53
2022/03/20 10:12:32;;;;;;;21.27;9.10;;;17.60;50.10;;;;;;5088630;28;20024;-53
2022/03/20 10:14:57;;;;;;;17.40;9.35;;;17.70;50.60;;;;;;5088944;28;20474;-53
2022/03/20 10:17:23;;;;;;;18.75;9.75;;;17.70;50.60;;;;;;5088572;28;20031;-57
2022/03/20 10:19:48;;;;;;;23.33;8.80;;;17.80;51.10;;;;;;5089049;28;20023;-49
2022/03/20 10:22:25;;;;;;;22.05;9.57;;;17.90;51.20;;;;;;5089115;28;20020;-47
2022/03/20 10:24:51;;;;;;;17.65;8.63;;;17.90;51.20;;;;;;5068580;28;20032;-50
2022/03/20 10:27:17;;;;;;;19.60;9.38;;;18.00;51.30;;;;;;5082863;28;20048;-47
2022/03/20 10:29:57;;;;;;;17.08;8.60;;;18.10;51.20;;;;;;5088270;28;20020;-54
2022/03/20 10:32:24;;;;;;;17.95;8.52;;;18.20;51.20;;;;;;5087293;28;20020;-52
2022/03/20 10:34:54;;;;;;;21.23;8.63;;;18.20;51.20;;;;;;5081223;28;20442;-53
2022/03/20 10:37:42;;;;;;;15.93;8.20;;;18.20;51.20;;;;;;5085339;28;20032;-51
2022/03/20 10:40:12;;;;;;;20.40;8.43;;;18.30;51.10;;;;;;5081796;28;20107;-54
2022/03/20 10:42:37;;;;;;;13.32;8.63;;;18.20;51.20;;;;;;5081039;28;20027;-54
2022/03/20 10:45:07;;;;;;;18.33;8.10;;;18.20;51.20;;;;;;5081108;28;20016;-52
2022/03/20 10:47:33;;;;;;;17.83;8.60;;;18.10;51.60;;;;;;5101245;28;20118;-55
2022/03/20 10:50:17;;;;;;;16.55;8.52;;;18.00;51.70;;;;;;5093852;28;20613;-56
2022/03/20 10:52:43;;;;;;;18.55;8.98;;;18.00;51.70;;;;;;5090836;28;20019;-56
2022/03/20 10:55:12;;;;;;;18.80;9.48;;;17.80;52.00;;;;;;5092060;28;20111;-55
2022/03/20 10:57:39;;;;;;;18.92;8.65;;;17.70;52.40;;;;;;5099299;28;20048;-53
2022/03/20 11:00:07;;;;;;;16.05;9.35;;;17.50;52.50;;;;;;5096832;28;20064;-56
2022/03/20 11:02:37;;;;;;;18.10;8.35;;;17.40;52.50;;;;;;5095682;28;20042;-50
2022/03/20 11:05:03;;;;;;;17.08;9.15;;;17.40;52.90;;;;;;5094196;28;20081;-53
2022/03/20 11:07:28;;;;;;;18.85;8.88;;;17.30;53.30;;;;;;5104240;28;20036;-54
2022/03/20 11:09:55;;;;;;;18.05;8.55;;;17.30;53.20;;;;;;5088149;28;20077;-53
2022/03/20 11:12:28;;;;;;;15.25;8.45;;;17.30;53.20;;;;;;5096293;28;20304;-53
2022/03/20 11:14:57;;;;;;;13.43;8.20;;;17.30;53.20;;;;;;5096333;28;20574;-51
2022/03/20 11:17:45;;;;;;;14.30;9.23;;;17.20;53.20;;;;;;5104095;28;20028;-53
2022/03/20 11:20:13;;;;;;;16.55;9.52;;;17.30;53.20;;;;;;5078803;28;20329;-55
2022/03/20 11:22:48;;;;;;;17.50;9.38;;;17.30;53.30;;;;;;5099032;28;20028;-53
2022/03/20 11:25:20;;;;;;;17.90;9.23;;;17.30;53.20;;;;;;5088871;28;20055;-53
2022/03/20 11:27:53;;;;;;;15.65;9.02;;;17.30;53.10;;;;;;5107069;28;20039;-54
2022/03/20 11:30:22;;;;;;;16.35;9.82;;;17.40;53.00;;;;;;5088216;28;20032;-55
2022/03/20 11:32:48;;;;;;;19.77;9.52;;;17.40;52.70;;;;;;5087130;28;20028;-51
2022/03/20 11:35:15;;;;;;;18.77;9.32;;;17.40;52.50;;;;;;5089575;28;20044;-54
2022/03/20 11:37:47;;;;;;;23.42;10.52;;;17.40;52.80;;;;;;5088112;28;20107;-54
2022/03/20 11:40:19;;;;;;;22.88;9.98;;;17.50;52.50;;;;;;5085090;28;20032;-51
2022/03/20 11:42:45;;;;;;;24.45;9.90;;;17.60;53.20;;;;;;5076220;28;20053;-49
2022/03/20 11:45:14;;;;;;;31.13;9.23;;;17.70;52.50;;;;;;5091295;28;20486;-49
2022/03/20 11:47:42;;;;;;;25.08;9.75;;;17.80;53.10;;;;;;5087551;28;20035;-55
2022/03/20 11:50:17;;;;;;;21.85;9.43;;;17.90;52.90;;;;;;5088201;28;20046;-55
2022/03/20 11:53:01;;;;;;;23.83;9.13;;;17.80;53.30;;;;;;5075787;28;20110;-56
2022/03/20 11:55:36;;;;;;;26.92;9.32;;;17.80;53.20;;;;;;5084228;28;20020;-55
2022/03/20 11:58:24;;;;;;;20.38;8.80;;;17.80;53.90;;;;;;5067779;28;20111;-51
2022/03/20 12:01:12;;;;;;;20.52;8.85;;;17.90;53.60;;;;;;5084978;28;20024;-55
2022/03/20 12:03:47;;;;;;;25.15;9.73;;;18.00;53.60;;;;;;5088346;28;20055;-55
2022/03/20 12:06:19;;;;;;;22.90;10.32;;;17.80;54.00;;;;;;5085868;28;20063;-56
2022/03/20 12:09:06;;;;;;;22.63;9.20;;;17.90;54.60;;;;;;5086123;28;20056;-55
2022/03/20 12:11:50;;;;;;;21.77;10.60;;;17.90;54.70;;;;;;5083840;28;20028;-52
2022/03/20 12:14:39;;;;;;;25.70;12.73;;;17.40;55.10;;;;;;5080150;28;20025;-53
2022/03/20 12:17:05;;;;;;;23.42;11.57;;;17.60;54.60;;;;;;5081466;28;20048;-54
2022/03/20 12:19:38;;;;;;;21.27;11.57;;;17.80;54.40;;;;;;5080997;28;20020;-50
2022/03/20 12:22:15;;;;;;;20.58;11.40;;;17.90;54.40;;;;;;5089175;28;20130;-49
2022/03/20 12:24:47;;;;;;;23.17;10.60;;;18.00;54.10;;;;;;5090803;28;20555;-54
2022/03/20 12:27:24;;;;;;;22.15;9.80;;;17.90;54.50;;;;;;5088333;28;20044;-55
2022/03/20 12:30:02;;;;;;;22.52;11.23;;;17.90;55.00;;;;;;5091127;28;20536;-54
2022/03/20 12:32:48;;;;;;;18.30;10.38;;;17.90;55.40;;;;;;5087349;28;20384;-56
2022/03/20 12:35:29;;;;;;;17.15;10.77;;;17.90;55.00;;;;;;5069847;28;20043;-57
2022/03/20 12:37:56;;;;;;;18.08;11.40;;;17.80;55.20;;;;;;5079859;28;20828;-56
2022/03/20 12:40:30;;;;;;;26.60;11.75;;;17.90;55.30;;;;;;5089674;28;20023;-57
2022/03/20 12:43:10;;;;;;;27.30;11.98;;;17.90;55.20;;;;;;5084361;28;20024;-55
2022/03/20 12:45:41;;;;;;;27.42;11.57;;;18.00;56.00;;;;;;5083043;28;20020;-51
2022/03/20 12:48:12;;;;;;;22.15;11.65;;;18.10;56.90;;;;;;5090555;28;20375;-56
2022/03/20 12:50:43;;;;;;;25.45;11.15;;;18.10;58.50;;;;;;5085165;28;20020;-57
2022/03/20 12:53:09;;;;;;;31.38;13.57;;;18.00;58.00;;;;;;5079751;28;20020;-57
2022/03/20 12:55:37;;;;;;;26.20;12.93;;;18.00;59.50;;;;;;5071313;28;20489;-56
2022/03/20 12:58:04;;;;;;;23.55;12.30;;;18.00;60.40;;;;;;5079909;28;20013;-55
2022/03/20 13:00:33;;;;;;;25.73;12.80;;;18.00;60.10;;;;;;5087180;28;20020;-56
2022/03/20 13:03:07;;;;;;;25.08;13.10;;;18.00;60.30;;;;;;5077704;28;20058;-57
2022/03/20 13:05:38;;;;;;;24.67;12.73;;;18.00;60.40;;;;;;5079559;28;20602;-55
2022/03/20 13:08:07;;;;;;;32.45;13.07;;;18.00;60.20;;;;;;5077631;28;20029;-56
2022/03/20 13:10:40;;;;;;;20.75;12.82;;;18.00;60.00;;;;;;5076781;28;20035;-54
2022/03/20 13:13:07;;;;;;;22.48;12.27;;;17.90;60.20;;;;;;5073783;28;20028;-53